createdAt,value
2023-03-16T00:02:01.272Z,102392.28
2023-03-16T00:04:14.374Z,102392.73
2023-03-16T00:06:27.310Z,102392.80
2023-03-16T00:08:40.551Z,102396.20
2023-03-16T00:10:55.371Z,102398.00
2023-03-16T00:13:08.300Z,102398.11
2023-03-16T00:15:21.241Z,102398.85
2023-03-16T00:17:36.051Z,102400.33
2023-03-16T00:19:51.236Z,102398.08
2023-03-16T00:22:04.261Z,102406.19
2023-03-16T00:24:19.438Z,102400.57
2023-03-16T00:26:33.163Z,102399.94
2023-03-16T00:28:46.372Z,102396.98
2023-03-16T00:31:00.484Z,102395.41
2023-03-16T00:33:13.427Z,102397.95
2023-03-16T00:35:26.561Z,102394.98
2023-03-16T00:37:40.684Z,102394.86
2023-03-16T00:39:54.147Z,102392.30
2023-03-16T00:42:07.104Z,102396.60
2023-03-16T00:44:20.125Z,102396.57
2023-03-16T00:46:33.089Z,102404.98
2023-03-16T00:48:47.570Z,102398.86
2023-03-16T00:51:00.886Z,102407.24
2023-03-16T00:53:14.083Z,102405.92
2023-03-16T00:55:28.428Z,102405.66
2023-03-16T00:57:42.226Z,102404.41
2023-03-16T00:59:55.530Z,102403.44
2023-03-16T01:02:10.847Z,102407.07
2023-03-16T01:04:24.305Z,102404.89
2023-03-16T01:06:39.889Z,102399.60
2023-03-16T01:08:54.014Z,102399.88
2023-03-16T01:11:17.632Z,102400.76
2023-03-16T01:13:30.523Z,102397.98
2023-03-16T01:15:44.187Z,102395.90
2023-03-16T01:17:58.294Z,102397.73
2023-03-16T01:20:16.674Z,102398.83
2023-03-16T01:22:30.405Z,102397.20
2023-03-16T01:24:43.715Z,102398.07
2023-03-16T01:26:57.591Z,102396.30
2023-03-16T01:29:10.515Z,102400.35
2023-03-16T01:31:24.068Z,102396.61
2023-03-16T01:33:37.414Z,102398.83
2023-03-16T01:36:00.755Z,102401.04
2023-03-16T01:38:17.759Z,102401.91
2023-03-16T01:40:32.595Z,102406.99
2023-03-16T01:42:51.778Z,102405.41
2023-03-16T01:47:39.232Z,102405.96
2023-03-16T01:50:00.760Z,102412.23
2023-03-16T01:52:22.433Z,102409.02
2023-03-16T01:54:38.936Z,102409.35
2023-03-16T01:56:59.227Z,102411.20
2023-03-16T01:59:17.920Z,102414.52
2023-03-16T02:01:32.606Z,102417.46
2023-03-16T02:03:46.996Z,102419.15
2023-03-16T02:06:09.914Z,102420.52
2023-03-16T02:08:27.954Z,102425.73
2023-03-16T02:10:43.862Z,102428.54
2023-03-16T02:12:59.175Z,102429.39
2023-03-16T02:15:16.336Z,102433.73
2023-03-16T02:17:32.197Z,102435.42
2023-03-16T02:19:57.076Z,102441.56
2023-03-16T02:22:12.457Z,102446.45
2023-03-16T02:24:25.629Z,102447.86
2023-03-16T02:26:46.531Z,102445.85
2023-03-16T02:29:20.869Z,102447.96
2023-03-16T02:31:35.519Z,102445.83
2023-03-16T02:33:50.992Z,102449.52
2023-03-16T02:36:04.969Z,102450.89
2023-03-16T02:38:17.915Z,102449.77
2023-03-16T02:40:37.709Z,102447.83
2023-03-16T02:42:57.496Z,102444.27
2023-03-16T02:45:16.086Z,102445.83
2023-03-16T02:47:37.472Z,102447.59
2023-03-16T02:49:51.957Z,102446.01
2023-03-16T02:52:05.695Z,102450.40
2023-03-16T02:54:19.068Z,102448.83
2023-03-16T02:56:32.167Z,102452.05
2023-03-16T02:58:45.514Z,102452.63
2023-03-16T03:01:02.625Z,102451.08
2023-03-16T03:03:15.973Z,102453.40
2023-03-16T03:05:29.055Z,102454.63
2023-03-16T03:07:43.226Z,102457.40
2023-03-16T03:09:56.314Z,102459.65
2023-03-16T03:12:10.266Z,102458.20
2023-03-16T03:14:23.494Z,102459.41
2023-03-16T03:16:37.434Z,102461.01
2023-03-16T03:18:50.974Z,102462.36
2023-03-16T03:21:04.496Z,102466.02
2023-03-16T03:23:18.406Z,102468.29
2023-03-16T03:25:31.766Z,102469.33
2023-03-16T03:27:45.618Z,102468.71
2023-03-16T03:30:01.726Z,102466.00
2023-03-16T03:32:16.117Z,102468.56
2023-03-16T03:34:29.661Z,102467.23
2023-03-16T03:36:44.513Z,102469.21
2023-03-16T03:38:57.787Z,102472.13
2023-03-16T03:41:11.365Z,102472.57
2023-03-16T03:43:25.397Z,102470.39
2023-03-16T03:45:38.684Z,102468.21
2023-03-16T03:47:52.086Z,102469.91
2023-03-16T03:50:06.457Z,102471.92
2023-03-16T03:52:20.718Z,102471.46
2023-03-16T03:54:45.568Z,102473.86
2023-03-16T03:57:21.931Z,102474.70
2023-03-16T03:59:45.124Z,102474.27
2023-03-16T04:02:39.973Z,102473.66
2023-03-16T04:05:21.105Z,102474.30
2023-03-16T04:07:49.724Z,102473.52
2023-03-16T04:10:17.896Z,102473.05
2023-03-16T04:12:33.975Z,102472.88
2023-03-16T04:15:06.484Z,102469.39
2023-03-16T04:17:35.484Z,102467.35
2023-03-16T04:20:08.823Z,102468.05
2023-03-16T04:22:35.892Z,102465.96
2023-03-16T04:24:58.763Z,102460.39
2023-03-16T04:27:32.604Z,102462.55
2023-03-16T04:30:10.594Z,102461.15
2023-03-16T04:32:35.481Z,102461.50
2023-03-16T04:35:15.035Z,102456.48
2023-03-16T04:37:41.306Z,102462.03
2023-03-16T04:40:11.337Z,102464.57
2023-03-16T04:42:26.117Z,102467.08
2023-03-16T04:44:45.417Z,102469.42
2023-03-16T04:47:00.543Z,102470.52
2023-03-16T04:49:20.515Z,102470.41
2023-03-16T04:51:34.987Z,102469.04
2023-03-16T04:53:53.786Z,102469.60
2023-03-16T04:56:20.608Z,102466.30
2023-03-16T04:58:36.159Z,102467.40
2023-03-16T05:00:52.592Z,102468.36
2023-03-16T05:03:15.685Z,102466.48
2023-03-16T05:05:29.210Z,102464.96
2023-03-16T05:07:42.723Z,102467.44
2023-03-16T05:09:55.954Z,102469.60
2023-03-16T05:12:09.475Z,102468.95
2023-03-16T05:14:29.240Z,102468.98
2023-03-16T05:16:54.655Z,102474.68
2023-03-16T05:19:07.916Z,102474.39
2023-03-16T05:21:23.985Z,102473.19
2023-03-16T05:23:43.064Z,102473.38
2023-03-16T05:25:57.643Z,102474.63
2023-03-16T05:28:11.227Z,102471.01
2023-03-16T05:30:32.555Z,102470.19
2023-03-16T05:32:48.823Z,102472.51
2023-03-16T05:35:06.676Z,102472.00
2023-03-16T05:37:20.298Z,102470.96
2023-03-16T05:39:33.927Z,102469.10
2023-03-16T05:41:47.587Z,102467.40
2023-03-16T05:44:10.321Z,102468.15
2023-03-16T05:46:46.977Z,102469.63
2023-03-16T05:49:00.213Z,102473.52
2023-03-16T05:51:16.709Z,102470.04
2023-03-16T05:53:32.891Z,102472.53
2023-03-16T05:55:58.118Z,102473.42
2023-03-16T05:58:11.489Z,102470.81
2023-03-16T06:00:35.668Z,102472.77
2023-03-16T06:03:04.473Z,102471.05
2023-03-16T06:05:20.375Z,102472.80
2023-03-16T06:07:35.014Z,102472.65
2023-03-16T06:09:52.141Z,102468.30
2023-03-16T06:12:08.542Z,102470.79
2023-03-16T06:14:24.593Z,102470.96
2023-03-16T06:16:44.248Z,102465.88
2023-03-16T06:19:14.714Z,102468.73
2023-03-16T06:21:42.807Z,102465.08
2023-03-16T06:23:57.850Z,102461.62
2023-03-16T06:26:13.951Z,102462.70
2023-03-16T06:28:28.830Z,102461.70
2023-03-16T06:31:00.552Z,102458.04
2023-03-16T06:34:11.446Z,102457.19
2023-03-16T06:36:59.287Z,102455.98
2023-03-16T06:39:13.213Z,102453.88
2023-03-16T06:41:28.370Z,102456.00
2023-03-16T06:43:42.009Z,102456.39
2023-03-16T06:45:55.659Z,102458.17
2023-03-16T06:48:11.234Z,102455.20
2023-03-16T06:50:24.863Z,102454.35
2023-03-16T06:52:37.683Z,102457.85
2023-03-16T06:54:50.935Z,102453.48
2023-03-16T06:57:05.773Z,102452.95
2023-03-16T06:59:19.493Z,102450.86
2023-03-16T07:01:32.975Z,102448.05
2023-03-16T07:03:47.477Z,102443.15
2023-03-16T07:06:10.002Z,102441.43
2023-03-16T07:08:23.132Z,102442.16
2023-03-16T07:10:36.057Z,102440.80
2023-03-16T07:12:56.780Z,102433.10
2023-03-16T07:15:11.346Z,102436.97
2023-03-16T07:17:24.856Z,102435.42
2023-03-16T07:19:38.660Z,102437.38
2023-03-16T07:21:52.800Z,102434.75
2023-03-16T07:24:11.479Z,102433.52
2023-03-16T07:26:37.977Z,102428.64
2023-03-16T07:28:51.838Z,102431.30
2023-03-16T07:31:17.909Z,102431.14
2023-03-16T07:33:31.916Z,102426.73
2023-03-16T07:35:45.118Z,102429.73
2023-03-16T07:38:12.297Z,102429.40
2023-03-16T07:40:27.248Z,102422.39
2023-03-16T07:42:45.265Z,102421.34
2023-03-16T07:45:13.556Z,102416.63
2023-03-16T07:47:27.114Z,102414.34
2023-03-16T07:49:42.595Z,102413.66
2023-03-16T07:52:01.671Z,102411.23
2023-03-16T07:54:40.428Z,102407.91
2023-03-16T07:56:53.693Z,102402.33
2023-03-16T07:59:20.777Z,102399.70
2023-03-16T08:01:40.715Z,102398.48
2023-03-16T08:03:54.716Z,102398.13
2023-03-16T08:06:20.295Z,102396.39
2023-03-16T08:08:33.935Z,102397.48
2023-03-16T08:10:50.548Z,102392.95
2023-03-16T08:13:11.755Z,102392.61
2023-03-16T08:15:27.936Z,102394.91
2023-03-16T08:17:45.598Z,102392.66
2023-03-16T08:20:11.564Z,102392.30
2023-03-16T08:22:25.528Z,102391.25
2023-03-16T08:24:51.669Z,102388.82
2023-03-16T08:27:05.847Z,102388.83
2023-03-16T08:29:20.360Z,102387.97
2023-03-16T08:31:36.232Z,102386.58
2023-03-16T08:34:12.470Z,102389.90
2023-03-16T08:36:29.672Z,102389.55
2023-03-16T08:38:45.371Z,102388.67
2023-03-16T08:41:01.980Z,102386.39
2023-03-16T08:43:15.259Z,102389.91
2023-03-16T08:45:29.083Z,102384.14
2023-03-16T08:47:41.988Z,102383.43
2023-03-16T08:49:55.024Z,102384.30
2023-03-16T08:52:08.728Z,102380.98
2023-03-16T08:54:21.896Z,102382.73
2023-03-16T08:56:35.210Z,102385.91
2023-03-16T08:58:50.533Z,102386.79
2023-03-16T09:01:04.992Z,102380.84
2023-03-16T09:03:17.847Z,102382.06
2023-03-16T09:05:31.852Z,102385.39
2023-03-16T09:07:45.822Z,102384.02
2023-03-16T09:09:59.856Z,102385.77
2023-03-16T09:12:15.096Z,102378.42
2023-03-16T09:14:28.032Z,102377.57
2023-03-16T09:16:41.629Z,102378.27
2023-03-16T09:18:54.875Z,102373.00
2023-03-16T09:21:11.565Z,102372.31
2023-03-16T09:23:25.055Z,102369.34
2023-03-16T09:25:38.549Z,102369.17
2023-03-16T09:27:51.997Z,102369.36
2023-03-16T09:30:06.195Z,102368.14
2023-03-16T09:32:19.642Z,102366.23
2023-03-16T09:34:33.500Z,102365.52
2023-03-16T09:36:47.705Z,102366.79
2023-03-16T09:39:00.913Z,102363.46
2023-03-16T09:41:27.168Z,102366.81
2023-03-16T09:43:58.512Z,102363.32
2023-03-16T09:46:17.663Z,102364.39
2023-03-16T09:48:34.069Z,102362.10
2023-03-16T09:50:49.756Z,102360.36
2023-03-16T09:53:12.101Z,102358.10
2023-03-16T09:55:34.436Z,102354.95
2023-03-16T09:57:50.026Z,102353.72
2023-03-16T10:00:11.595Z,102351.63
2023-03-16T10:02:44.352Z,102345.88
2023-03-16T10:05:10.821Z,102343.58
2023-03-16T10:07:34.557Z,102343.40
2023-03-16T10:09:56.124Z,102340.40
2023-03-16T10:12:11.778Z,102339.35
2023-03-16T10:14:31.135Z,102335.66
2023-03-16T10:16:51.674Z,102334.07
2023-03-16T10:19:13.075Z,102332.32
2023-03-16T10:21:29.896Z,102326.52
2023-03-16T10:23:43.476Z,102321.46
2023-03-16T10:25:57.625Z,102318.66
2023-03-16T10:28:11.181Z,102318.13
2023-03-16T10:30:31.165Z,102320.94
2023-03-16T10:32:44.289Z,102321.10
2023-03-16T10:35:02.320Z,102316.38
2023-03-16T10:37:18.985Z,102318.83
2023-03-16T10:39:44.128Z,102315.33
2023-03-16T10:42:05.252Z,102315.52
2023-03-16T10:44:20.114Z,102316.77
2023-03-16T10:46:39.135Z,102311.52
2023-03-16T10:49:02.539Z,102308.37
2023-03-16T10:51:21.260Z,102306.28
2023-03-16T10:53:38.613Z,102305.08
2023-03-16T10:55:53.961Z,102304.20
2023-03-16T10:58:07.291Z,102301.41
2023-03-16T11:00:25.134Z,102300.54
2023-03-16T11:02:40.477Z,102295.48
2023-03-16T11:04:54.631Z,102288.15
2023-03-16T11:07:11.130Z,102290.08
2023-03-16T11:09:29.987Z,102285.20
2023-03-16T11:11:49.918Z,102288.89
2023-03-16T11:14:07.699Z,102282.95
2023-03-16T11:16:29.169Z,102281.02
2023-03-16T11:18:47.305Z,102280.70
2023-03-16T11:21:01.785Z,102274.77
2023-03-16T11:23:20.035Z,102270.95
2023-03-16T11:25:37.965Z,102268.69
2023-03-16T11:27:57.160Z,102268.17
2023-03-16T11:30:17.800Z,102265.00
2023-03-16T11:32:37.252Z,102269.02
2023-03-16T11:34:51.307Z,102264.29
2023-03-16T11:37:14.587Z,102261.99
2023-03-16T11:39:41.643Z,102260.92
2023-03-16T11:42:05.480Z,102260.39
2023-03-16T11:44:26.616Z,102258.80
2023-03-16T11:46:44.956Z,102257.73
2023-03-16T11:49:29.727Z,102258.96
2023-03-16T11:51:56.385Z,102258.40
2023-03-16T11:54:21.300Z,102258.39
2023-03-16T11:56:39.459Z,102256.80
2023-03-16T11:59:20.379Z,102255.23
2023-03-16T12:01:57.944Z,102250.67
2023-03-16T12:04:38.241Z,102248.06
2023-03-16T12:07:06.567Z,102250.55
2023-03-16T12:09:48.485Z,102247.59
2023-03-16T12:12:05.919Z,102250.08
2023-03-16T12:14:27.846Z,102249.94
2023-03-16T12:16:49.948Z,102248.57
2023-03-16T12:19:06.586Z,102248.23
2023-03-16T12:21:24.202Z,102245.63
2023-03-16T12:23:41.604Z,102244.42
2023-03-16T12:25:56.362Z,102241.45
2023-03-16T12:28:15.266Z,102239.88
2023-03-16T12:30:38.834Z,102239.54
2023-03-16T12:32:58.750Z,102236.06
2023-03-16T12:35:20.288Z,102235.53
2023-03-16T12:37:44.869Z,102234.84
2023-03-16T12:40:13.580Z,102232.59
2023-03-16T12:42:43.733Z,102234.70
2023-03-16T12:45:06.108Z,102231.20
2023-03-16T12:47:30.221Z,102228.57
2023-03-16T12:49:44.332Z,102229.47
2023-03-16T12:52:05.964Z,102231.77
2023-03-16T12:54:27.725Z,102226.85
2023-03-16T12:56:48.771Z,102226.17
2023-03-16T12:59:03.480Z,102224.61
2023-03-16T13:01:18.211Z,102218.15
2023-03-16T13:03:32.443Z,102214.66
2023-03-16T13:05:54.434Z,102216.06
2023-03-16T13:08:17.688Z,102210.83
2023-03-16T13:10:32.475Z,102211.02
2023-03-16T13:12:47.435Z,102211.55
2023-03-16T13:15:01.367Z,102213.64
2023-03-16T13:17:30.510Z,102210.52
2023-03-16T13:19:46.290Z,102212.80
2023-03-16T13:22:22.585Z,102212.63
2023-03-16T13:24:43.076Z,102216.48
2023-03-16T13:27:02.342Z,102218.05
2023-03-16T13:29:28.284Z,102219.79
2023-03-16T13:31:44.884Z,102218.05
2023-03-16T13:34:01.251Z,102213.50
2023-03-16T13:36:16.627Z,102213.86
2023-03-16T13:38:32.078Z,102215.44
2023-03-16T13:40:51.386Z,102214.73
2023-03-16T13:43:05.371Z,102208.10
2023-03-16T13:45:23.037Z,102210.19
2023-03-16T13:47:36.507Z,102207.75
2023-03-16T13:49:54.528Z,102209.85
2023-03-16T13:52:09.588Z,102207.41
2023-03-16T13:54:29.288Z,102204.79
2023-03-16T13:56:42.717Z,102203.91
2023-03-16T13:58:59.126Z,102205.84
2023-03-16T14:01:23.557Z,102204.98
2023-03-16T14:03:40.617Z,102204.98
2023-03-16T14:05:54.931Z,102205.34
2023-03-16T14:08:17.960Z,102200.25
2023-03-16T14:10:35.423Z,102197.63
2023-03-16T14:12:56.916Z,102196.40
2023-03-16T14:15:09.050Z,102192.04
2023-03-16T14:17:24.420Z,102190.81
2023-03-16T14:19:43.581Z,102184.52
2023-03-16T14:21:57.180Z,102184.86
2023-03-16T14:24:21.859Z,102185.73
2023-03-16T14:26:46.836Z,102184.88
2023-03-16T14:29:09.840Z,102183.84
2023-03-16T14:31:25.583Z,102182.61
2023-03-16T14:33:42.501Z,102181.02
2023-03-16T14:36:01.553Z,102178.58
2023-03-16T14:38:37.360Z,102181.90
2023-03-16T14:40:59.538Z,102178.23
2023-03-16T14:43:13.950Z,102176.83
2023-03-16T14:45:30.460Z,102176.30
2023-03-16T14:47:46.543Z,102173.52
2023-03-16T14:50:00.899Z,102168.09
2023-03-16T14:52:23.590Z,102172.81
2023-03-16T14:54:34.630Z,102171.75
2023-03-16T14:56:51.791Z,102175.60
2023-03-16T14:59:05.280Z,102176.30
2023-03-16T15:01:22.218Z,102174.56
2023-03-16T15:03:39.467Z,102173.34
2023-03-16T15:05:54.228Z,102177.02
2023-03-16T15:08:08.771Z,102175.96
2023-03-16T15:10:29.154Z,102177.70
2023-03-16T15:12:42.670Z,102174.36
2023-03-16T15:15:12.384Z,102171.39
2023-03-16T15:17:26.241Z,102171.17
2023-03-16T15:19:40.108Z,102171.46
2023-03-16T15:21:53.131Z,102175.42
2023-03-16T15:24:06.524Z,102171.33
2023-03-16T15:26:24.928Z,102172.83
2023-03-16T15:28:38.784Z,102171.67
2023-03-16T15:30:54.021Z,102169.96
2023-03-16T15:33:07.522Z,102163.02
2023-03-16T15:35:21.265Z,102163.07
2023-03-16T15:37:35.814Z,102162.21
2023-03-16T15:39:50.920Z,102156.95
2023-03-16T15:42:04.521Z,102149.27
2023-03-16T15:44:18.362Z,102145.62
2023-03-16T15:46:31.450Z,102142.84
2023-03-16T15:48:45.596Z,102143.73
2023-03-16T15:51:02.007Z,102139.02
2023-03-16T15:53:30.214Z,102133.77
2023-03-16T15:55:46.149Z,102133.62
2023-03-16T15:58:04.108Z,102125.62
2023-03-16T16:00:33.135Z,102127.61
2023-03-16T16:02:46.530Z,102127.48
2023-03-16T16:04:59.478Z,102129.61
2023-03-16T16:07:16.277Z,102128.78
2023-03-16T16:09:29.918Z,102126.90
2023-03-16T16:11:43.350Z,102123.27
2023-03-16T16:13:58.010Z,102123.84
2023-03-16T16:16:12.861Z,102124.77
2023-03-16T16:18:42.311Z,102120.58
2023-03-16T16:20:55.862Z,102119.37
2023-03-16T16:23:15.440Z,102118.13
2023-03-16T16:25:31.797Z,102114.23
2023-03-16T16:27:45.039Z,102111.76
2023-03-16T16:29:58.408Z,102111.39
2023-03-16T16:32:27.964Z,102108.74
2023-03-16T16:34:41.355Z,102112.25
2023-03-16T16:36:54.512Z,102113.09
2023-03-16T16:39:07.530Z,102110.08
2023-03-16T16:41:29.684Z,102102.16
2023-03-16T16:43:44.981Z,102101.74
2023-03-16T16:45:58.695Z,102100.17
2023-03-16T16:48:30.793Z,102094.04
2023-03-16T16:50:43.696Z,102097.33
2023-03-16T16:52:58.680Z,102093.98
2023-03-16T16:55:12.357Z,102089.55
2023-03-16T16:57:26.384Z,102091.45
2023-03-16T16:59:40.798Z,102087.39
2023-03-16T17:01:55.555Z,102080.33
2023-03-16T17:04:15.356Z,102084.15
2023-03-16T17:06:29.056Z,102085.86
2023-03-16T17:08:41.876Z,102084.61
2023-03-16T17:10:56.266Z,102086.29
2023-03-16T17:13:10.375Z,102081.02
2023-03-16T17:15:29.096Z,102080.05
2023-03-16T17:17:42.535Z,102078.13
2023-03-16T17:19:56.484Z,102077.99
2023-03-16T17:22:20.767Z,102077.04
2023-03-16T17:24:34.186Z,102078.23
2023-03-16T17:26:49.369Z,102074.66
2023-03-16T17:29:04.967Z,102070.11
2023-03-16T17:31:22.630Z,102068.39
2023-03-16T17:33:35.578Z,102067.75
2023-03-16T17:35:48.427Z,102066.55
2023-03-16T17:38:01.398Z,102064.86
2023-03-16T17:40:22.316Z,102065.52
2023-03-16T17:42:35.348Z,102059.70
2023-03-16T17:44:50.673Z,102057.95
2023-03-16T17:47:04.007Z,102054.79
2023-03-16T17:49:21.137Z,102051.42
2023-03-16T17:51:35.816Z,102053.52
2023-03-16T17:53:49.624Z,102050.81
2023-03-16T17:56:06.222Z,102049.66
2023-03-16T17:58:29.047Z,102049.36
2023-03-16T18:00:43.541Z,102049.98
2023-03-16T18:03:00.029Z,102051.56
2023-03-16T18:05:22.118Z,102050.66
2023-03-16T18:07:35.037Z,102045.88
2023-03-16T18:09:49.034Z,102039.94
2023-03-16T18:12:02.370Z,102036.65
2023-03-16T18:14:26.920Z,102033.23
2023-03-16T18:16:40.538Z,102032.00
2023-03-16T18:18:55.102Z,102029.39
2023-03-16T18:21:09.989Z,102024.92
2023-03-16T18:23:26.286Z,102023.58
2023-03-16T18:25:41.396Z,102019.17
2023-03-16T18:27:54.379Z,102019.67
2023-03-16T18:30:07.882Z,102017.54
2023-03-16T18:32:27.552Z,102020.05
2023-03-16T18:34:40.558Z,102019.39
2023-03-16T18:36:54.655Z,102011.67
2023-03-16T18:39:09.819Z,102012.05
2023-03-16T18:41:25.686Z,102009.18
2023-03-16T18:43:39.179Z,102000.95
2023-03-16T18:45:54.847Z,101995.04
2023-03-16T18:48:08.623Z,101991.61
2023-03-16T18:50:31.350Z,101991.02
2023-03-16T18:52:42.421Z,101990.32
2023-03-16T18:54:56.839Z,101988.24
2023-03-16T18:57:19.816Z,101989.30
2023-03-16T18:59:32.562Z,101986.59
2023-03-16T19:01:48.382Z,101983.98
2023-03-16T19:04:02.751Z,101988.70
2023-03-16T19:06:23.001Z,101990.06
2023-03-16T19:08:35.951Z,101990.70
2023-03-16T19:10:52.760Z,101984.73
2023-03-16T19:13:06.106Z,101989.55
2023-03-16T19:15:26.137Z,101990.06
2023-03-16T19:17:39.547Z,101990.60
2023-03-16T19:19:52.654Z,101988.46
2023-03-16T19:22:10.925Z,101978.91
2023-03-16T19:24:30.096Z,101979.20
2023-03-16T19:26:43.555Z,101980.17
2023-03-16T19:28:56.764Z,101982.01
2023-03-16T19:31:17.669Z,101977.28
2023-03-16T19:33:32.278Z,101980.76
2023-03-16T19:35:51.847Z,101979.35
2023-03-16T19:38:05.576Z,101972.89
2023-03-16T19:40:21.010Z,101971.23
2023-03-16T19:42:37.477Z,101966.85
2023-03-16T19:44:51.908Z,101965.99
2023-03-16T19:47:05.869Z,101967.05
2023-03-16T19:49:23.119Z,101966.75
2023-03-16T19:51:36.680Z,101966.73
2023-03-16T19:53:50.912Z,101970.13
2023-03-16T19:56:04.939Z,101965.27
2023-03-16T19:58:26.652Z,101963.21
2023-03-16T20:00:39.993Z,101964.13
2023-03-16T20:02:57.949Z,101966.95
2023-03-16T20:05:19.271Z,101967.42
2023-03-16T20:07:32.195Z,101966.42
2023-03-16T20:09:45.119Z,101962.89
2023-03-16T20:11:58.189Z,101960.51
2023-03-16T20:14:17.949Z,101964.23
2023-03-16T20:16:33.330Z,101970.51
2023-03-16T20:18:46.755Z,101970.36
2023-03-16T20:20:59.629Z,101966.35
2023-03-16T20:23:22.308Z,101963.05
2023-03-16T20:25:37.960Z,101963.08
2023-03-16T20:27:58.498Z,101961.67
2023-03-16T20:30:21.544Z,101958.05
2023-03-16T20:32:40.932Z,101953.06
2023-03-16T20:34:55.136Z,101950.90
2023-03-16T20:37:12.387Z,101943.85
2023-03-16T20:39:25.404Z,101941.63
2023-03-16T20:41:39.949Z,101942.52
2023-03-16T20:43:53.277Z,101946.83
2023-03-16T20:46:06.981Z,101945.32
2023-03-16T20:48:22.044Z,101938.27
2023-03-16T20:50:35.812Z,101929.70
2023-03-16T20:52:49.077Z,101926.66
2023-03-16T20:55:02.630Z,101925.41
2023-03-16T20:57:22.486Z,101927.20
2023-03-16T20:59:36.060Z,101923.89
2023-03-16T21:01:49.170Z,101916.08
2023-03-16T21:04:01.974Z,101917.88
2023-03-16T21:06:25.019Z,101917.88
2023-03-16T21:08:37.925Z,101912.81
2023-03-16T21:10:52.908Z,101914.83
2023-03-16T21:13:06.336Z,101911.39
2023-03-16T21:15:28.623Z,101909.48
2023-03-16T21:17:43.966Z,101904.08
2023-03-16T21:19:57.688Z,101900.02
2023-03-16T21:22:22.051Z,101896.52
2023-03-16T21:24:35.525Z,101898.66
2023-03-16T21:26:49.305Z,101896.40
2023-03-16T21:29:05.377Z,101894.88
2023-03-16T21:31:22.033Z,101892.98
2023-03-16T21:33:38.328Z,101892.38
2023-03-16T21:35:51.194Z,101893.70
2023-03-16T21:38:05.317Z,101897.05
2023-03-16T21:40:25.028Z,101891.52
2023-03-16T21:42:38.187Z,101889.36
2023-03-16T21:44:51.871Z,101884.80
2023-03-16T21:47:05.018Z,101877.84
2023-03-16T21:49:19.145Z,101875.51
2023-03-16T21:51:34.707Z,101877.01
2023-03-16T21:53:49.007Z,101872.73
2023-03-16T21:56:02.726Z,101872.80
2023-03-16T21:58:18.363Z,101871.67
2023-03-16T22:00:34.535Z,101868.11
2023-03-16T22:02:47.503Z,101862.64
2023-03-16T22:05:01.954Z,101863.48
2023-03-16T22:07:18.818Z,101861.00
2023-03-16T22:09:34.041Z,101854.20
2023-03-16T22:11:47.665Z,101849.69
2023-03-16T22:14:02.592Z,101850.49
2023-03-16T22:16:21.175Z,101847.32
2023-03-16T22:18:40.236Z,101847.08
2023-03-16T22:20:53.944Z,101842.20
2023-03-16T22:23:07.702Z,101844.41
2023-03-16T22:25:23.295Z,101840.66
2023-03-16T22:27:36.314Z,101836.69
2023-03-16T22:29:51.170Z,101837.98
2023-03-16T22:32:06.765Z,101834.15
2023-03-16T22:34:28.677Z,101831.98
2023-03-16T22:36:41.804Z,101835.42
2023-03-16T22:38:58.837Z,101838.46
2023-03-16T22:41:15.788Z,101835.18
2023-03-16T22:43:38.468Z,101832.30
2023-03-16T22:45:51.676Z,101832.22
2023-03-16T22:48:06.036Z,101833.32
2023-03-16T22:50:25.489Z,101831.14
2023-03-16T22:52:40.837Z,101832.93
2023-03-16T22:54:53.787Z,101829.17
2023-03-16T22:57:06.901Z,101826.96
2023-03-16T22:59:24.390Z,101822.51
2023-03-16T23:01:42.260Z,101826.59
2023-03-16T23:03:56.229Z,101827.52
2023-03-16T23:06:10.140Z,101825.91
2023-03-16T23:08:25.165Z,101825.71
2023-03-16T23:10:38.341Z,101818.09
2023-03-16T23:12:52.464Z,101812.43
2023-03-16T23:15:06.602Z,101805.23
2023-03-16T23:17:23.277Z,101803.27
2023-03-16T23:19:38.710Z,101803.17
2023-03-16T23:21:52.131Z,101802.02
2023-03-16T23:24:05.575Z,101799.41
2023-03-16T23:26:29.243Z,101793.75
2023-03-16T23:28:42.911Z,101792.98
2023-03-16T23:30:56.645Z,101787.52
2023-03-16T23:33:11.007Z,101779.64
2023-03-16T23:35:27.031Z,101779.88
2023-03-16T23:37:40.259Z,101780.29
2023-03-16T23:39:53.671Z,101777.54
2023-03-16T23:42:07.430Z,101775.01
2023-03-16T23:44:24.657Z,101767.83
2023-03-16T23:46:37.936Z,101767.13
2023-03-16T23:48:52.601Z,101763.57
2023-03-16T23:51:06.661Z,101759.19
2023-03-16T23:53:22.751Z,101758.94
2023-03-16T23:55:35.710Z,101756.66
2023-03-16T23:57:52.354Z,101750.45
